createdAt,value
2022-08-27T00:04:16.362Z,9.82
2022-08-27T00:09:27.074Z,9.85
2022-08-27T00:14:29.982Z,9.25
2022-08-27T00:19:39.938Z,10.05
2022-08-27T00:24:48.784Z,9.60
2022-08-27T00:29:54.185Z,9.65
2022-08-27T00:35:01.423Z,9.20
2022-08-27T00:40:12.577Z,9.57
2022-08-27T00:45:16.366Z,8.90
2022-08-27T00:50:23.477Z,9.35
2022-08-27T00:55:36.074Z,9.52
2022-08-27T01:00:46.260Z,9.40
2022-08-27T01:05:50.052Z,9.23
2022-08-27T01:10:55.898Z,8.75
2022-08-27T01:16:03.481Z,9.02
2022-08-27T01:21:12.807Z,9.07
2022-08-27T01:26:16.107Z,8.82
2022-08-27T01:31:21.438Z,9.18
2022-08-27T01:36:23.854Z,9.40
2022-08-27T01:41:33.456Z,9.17
2022-08-27T01:46:38.618Z,8.90
2022-08-27T01:51:45.587Z,8.88
2022-08-27T01:56:50.812Z,9.07
2022-08-27T02:01:54.694Z,8.60
2022-08-27T02:32:31.401Z,7.80
2022-08-27T02:37:34.995Z,9.13
2022-08-27T02:42:38.165Z,9.00
2022-08-27T02:47:42.910Z,8.48
2022-08-27T02:52:50.812Z,8.70
2022-08-27T02:57:53.619Z,8.40
2022-08-27T03:03:01.387Z,9.20
2022-08-27T03:08:07.212Z,8.60
2022-08-27T03:13:10.254Z,8.53
2022-08-27T03:18:21.919Z,8.85
2022-08-27T03:23:26.429Z,8.47
2022-08-27T03:28:35.599Z,8.70
2022-08-27T03:33:40.593Z,9.30
2022-08-27T03:38:43.135Z,9.43
2022-08-27T03:43:47.959Z,9.23
2022-08-27T03:48:50.333Z,9.05
2022-08-27T03:53:56.271Z,9.07
2022-08-27T03:59:03.255Z,8.80
2022-08-27T04:04:10.877Z,9.10
2022-08-27T04:09:13.269Z,8.68
2022-08-27T04:14:27.039Z,8.45
2022-08-27T04:19:33.286Z,9.27
2022-08-27T04:24:38.744Z,9.00
2022-08-27T04:29:43.879Z,9.38
2022-08-27T04:34:52.094Z,9.00
2022-08-27T04:39:59.314Z,8.93
2022-08-27T04:45:06.795Z,9.27
2022-08-27T04:50:11.578Z,9.15
2022-08-27T04:55:15.813Z,9.07
2022-08-27T05:00:20.738Z,8.30
2022-08-27T05:05:23.712Z,8.90
2022-08-27T05:10:29.016Z,9.40
2022-08-27T05:15:34.034Z,9.13
2022-08-27T05:20:42.273Z,8.68
2022-08-27T05:25:48.199Z,8.75
2022-08-27T05:30:57.121Z,8.98
2022-08-27T05:36:02.107Z,8.63
2022-08-27T05:41:11.621Z,9.07
2022-08-27T05:46:16.876Z,9.03
2022-08-27T05:51:26.089Z,9.10
2022-08-27T05:56:34.628Z,8.35
2022-08-27T06:01:45.057Z,9.25
2022-08-27T06:06:50.571Z,9.17
2022-08-27T06:11:56.239Z,8.82
2022-08-27T06:17:01.993Z,8.70
2022-08-27T06:22:09.927Z,9.17
2022-08-27T06:27:20.538Z,9.30
2022-08-27T06:32:24.200Z,9.25
2022-08-27T06:37:31.420Z,9.27
2022-08-27T06:42:38.722Z,9.63
2022-08-27T06:47:44.705Z,8.70
2022-08-27T06:52:56.432Z,9.33
2022-08-27T06:58:15.231Z,9.80
2022-08-27T07:03:20.051Z,10.07
2022-08-27T07:08:29.467Z,9.43
2022-08-27T07:13:35.293Z,9.30
2022-08-27T07:18:40.999Z,8.85
2022-08-27T07:23:49.954Z,10.20
2022-08-27T07:28:54.674Z,9.60
2022-08-27T07:33:59.285Z,9.48
2022-08-27T07:39:02.088Z,8.80
2022-08-27T07:44:26.052Z,9.07
2022-08-27T07:49:35.409Z,8.82
2022-08-27T07:54:37.932Z,8.77
2022-08-27T07:59:43.168Z,8.82
2022-08-27T08:04:48.900Z,9.15
2022-08-27T08:09:51.350Z,8.73
2022-08-27T08:15:04.880Z,9.07
2022-08-27T08:20:21.794Z,8.88
2022-08-27T08:25:30.625Z,9.45
2022-08-27T08:30:59.061Z,9.83
2022-08-27T08:36:12.697Z,9.32
2022-08-27T08:41:24.108Z,9.18
2022-08-27T08:46:52.233Z,9.20
2022-08-27T08:52:32.064Z,9.10
2022-08-27T08:57:48.922Z,9.35
2022-08-27T09:03:06.629Z,9.65
2022-08-27T09:08:34.052Z,9.95
2022-08-27T09:13:57.927Z,9.18
2022-08-27T09:19:02.728Z,9.00
2022-08-27T09:24:08.909Z,9.82
2022-08-27T09:29:21.208Z,8.70
2022-08-27T09:34:27.398Z,10.98
2022-08-27T09:39:34.464Z,9.20
2022-08-27T09:44:51.504Z,9.23
2022-08-27T09:50:07.302Z,9.15
2022-08-27T09:55:10.254Z,9.63
2022-08-27T10:00:18.481Z,11.05
2022-08-27T10:05:30.269Z,11.13
2022-08-27T10:10:48.620Z,10.75
2022-08-27T10:16:02.546Z,11.05
2022-08-27T10:21:18.227Z,11.43
2022-08-27T10:26:33.722Z,12.15
2022-08-27T10:31:40.221Z,11.52
2022-08-27T10:36:52.209Z,10.98
2022-08-27T10:41:59.626Z,11.10
2022-08-27T10:47:10.654Z,11.75
2022-08-27T10:52:13.041Z,11.95
2022-08-27T10:57:45.397Z,11.95
2022-08-27T11:02:49.877Z,11.93
2022-08-27T11:08:05.366Z,12.05
2022-08-27T11:13:15.291Z,11.65
2022-08-27T11:18:32.380Z,11.70
2022-08-27T11:23:41.499Z,11.15
2022-08-27T11:28:58.634Z,10.70
2022-08-27T11:34:12.599Z,10.70
2022-08-27T11:39:14.918Z,10.73
2022-08-27T11:44:22.724Z,10.75
2022-08-27T11:49:35.478Z,10.10
2022-08-27T11:54:51.163Z,10.30
2022-08-27T11:59:53.591Z,10.57
2022-08-27T12:05:09.127Z,10.15
2022-08-27T12:10:17.425Z,9.98
2022-08-27T12:15:26.616Z,9.95
2022-08-27T12:20:43.908Z,9.82
2022-08-27T12:26:00.527Z,10.65
2022-08-27T12:31:06.730Z,9.93
2022-08-27T12:36:21.246Z,9.18
2022-08-27T12:41:43.949Z,9.73
2022-08-27T12:46:54.240Z,9.60
2022-08-27T12:52:03.421Z,9.63
2022-08-27T12:57:13.025Z,9.38
2022-08-27T13:02:25.710Z,9.75
2022-08-27T13:07:38.041Z,9.60
2022-08-27T13:12:45.829Z,9.55
2022-08-27T13:17:51.938Z,9.07
2022-08-27T13:22:58.975Z,9.35
2022-08-27T13:28:08.111Z,9.68
2022-08-27T13:33:20.121Z,10.02
2022-08-27T13:38:30.418Z,8.60
2022-08-27T13:43:35.861Z,8.70
2022-08-27T13:48:41.686Z,8.27
2022-08-27T13:54:07.722Z,8.07
2022-08-27T13:59:10.454Z,7.78
2022-08-27T14:04:21.624Z,7.88
2022-08-27T14:09:28.767Z,7.82
2022-08-27T14:14:36.741Z,7.88
2022-08-27T14:19:42.346Z,7.70
2022-08-27T14:24:47.746Z,7.40
2022-08-27T14:29:57.266Z,7.45
2022-08-27T14:34:59.702Z,7.00
2022-08-27T14:40:07.328Z,6.88
2022-08-27T14:45:14.501Z,7.60
2022-08-27T14:50:17.157Z,7.45
2022-08-27T14:55:19.573Z,7.13
2022-08-27T15:00:24.341Z,7.35
2022-08-27T15:05:27.712Z,7.32
2022-08-27T15:10:30.910Z,7.38
2022-08-27T15:15:40.995Z,7.28
2022-08-27T15:20:48.104Z,7.45
2022-08-27T15:25:52.866Z,7.85
2022-08-27T15:30:59.951Z,6.88
2022-08-27T15:36:04.329Z,7.72
2022-08-27T15:41:10.461Z,8.13
2022-08-27T15:46:15.076Z,7.07
2022-08-27T15:51:17.946Z,7.03
2022-08-27T15:56:20.493Z,7.45
2022-08-27T16:01:27.734Z,7.45
2022-08-27T16:06:32.624Z,7.88
2022-08-27T16:11:37.624Z,8.15
2022-08-27T16:16:46.789Z,8.13
2022-08-27T16:21:52.454Z,8.68
2022-08-27T16:26:57.300Z,8.23
2022-08-27T16:32:01.476Z,9.60
2022-08-27T16:37:08.449Z,8.73
2022-08-27T16:42:10.951Z,8.02
2022-08-27T16:47:15.852Z,8.45
2022-08-27T16:52:19.713Z,9.02
2022-08-27T16:57:24.351Z,8.88
2022-08-27T17:02:31.541Z,9.15
2022-08-27T17:07:36.476Z,9.05
2022-08-27T17:12:42.388Z,9.48
2022-08-27T17:17:45.264Z,12.20
2022-08-27T17:22:54.700Z,9.50
2022-08-27T17:28:00.161Z,9.50
2022-08-27T17:33:07.457Z,9.70
2022-08-27T17:38:12.776Z,9.57
2022-08-27T17:43:19.481Z,11.00
2022-08-27T17:48:26.876Z,11.60
2022-08-27T17:53:29.551Z,9.60
2022-08-27T17:58:34.259Z,10.32
2022-08-27T18:03:47.875Z,9.20
2022-08-27T18:08:50.789Z,10.85
2022-08-27T18:13:59.564Z,10.60
2022-08-27T18:19:07.082Z,12.25
2022-08-27T18:24:11.328Z,10.98
2022-08-27T18:39:25.678Z,11.02
2022-08-27T18:54:37.447Z,11.90
2022-08-27T18:59:39.931Z,13.90
2022-08-27T19:04:42.608Z,13.27
2022-08-27T19:09:47.614Z,13.30
2022-08-27T19:14:52.459Z,14.90
2022-08-27T19:19:57.718Z,14.75
2022-08-27T19:25:00.314Z,20.80
2022-08-27T19:30:04.288Z,16.30
2022-08-27T19:35:09.131Z,13.77
2022-08-27T19:40:16.506Z,13.98
2022-08-27T19:45:23.129Z,14.63
2022-08-27T19:50:30.727Z,15.18
2022-08-27T19:55:35.337Z,14.77
2022-08-27T20:00:43.050Z,15.10
2022-08-27T20:05:48.688Z,14.03
2022-08-27T20:10:53.366Z,14.03
2022-08-27T20:15:55.717Z,16.02
2022-08-27T20:21:05.830Z,16.87
2022-08-27T20:26:10.996Z,19.90
2022-08-27T20:31:13.443Z,17.50
2022-08-27T20:36:27.692Z,15.50
2022-08-27T20:41:32.634Z,14.00
2022-08-27T20:46:35.281Z,15.30
2022-08-27T20:52:01.947Z,16.13
2022-08-27T20:57:08.967Z,15.30
2022-08-27T21:02:12.354Z,15.07
2022-08-27T21:07:20.326Z,15.83
2022-08-27T21:12:27.072Z,16.07
2022-08-27T21:17:35.137Z,15.63
2022-08-27T21:22:41.724Z,14.77
2022-08-27T21:27:48.584Z,17.23
2022-08-27T21:32:59.292Z,17.30
2022-08-27T21:38:09.071Z,18.05
2022-08-27T21:43:13.651Z,17.33
2022-08-27T21:48:15.967Z,16.90
2022-08-27T21:53:22.121Z,17.60
2022-08-27T21:58:27.090Z,18.23
2022-08-27T22:03:29.527Z,17.47
2022-08-27T22:08:36.757Z,17.95
2022-08-27T22:13:42.059Z,18.50
2022-08-27T22:18:46.969Z,17.45
2022-08-27T22:23:59.375Z,17.50
2022-08-27T22:29:04.988Z,17.63
2022-08-27T22:34:13.296Z,18.30
2022-08-27T22:39:17.391Z,17.60
2022-08-27T22:44:23.089Z,17.90
2022-08-27T22:49:30.647Z,17.65
2022-08-27T22:54:35.499Z,17.25
2022-08-27T22:59:45.218Z,17.35
2022-08-27T23:04:57.155Z,17.05
2022-08-27T23:10:02.477Z,17.10
2022-08-27T23:15:08.341Z,16.63
2022-08-27T23:20:11.465Z,17.50
2022-08-27T23:25:37.631Z,17.27
2022-08-27T23:30:48.346Z,16.80
2022-08-27T23:35:55.553Z,16.57
2022-08-27T23:41:00.889Z,15.77
2022-08-27T23:46:03.649Z,16.17
2022-08-27T23:51:12.227Z,16.87
2022-08-27T23:56:16.914Z,15.60
